sensor_id;sensor_type;location;lat;lon;timestamp;temperature;humidity
17178;DHT22;8704;52.006;4.374;2023-08-08T00:00:59;16.90;99.90
17178;DHT22;8704;52.006;4.374;2023-08-08T00:03:28;16.90;99.90
17178;DHT22;8704;52.006;4.374;2023-08-08T00:05:56;16.90;99.90
17178;DHT22;8704;52.006;4.374;2023-08-08T00:08:24;16.90;99.90
17178;DHT22;8704;52.006;4.374;2023-08-08T00:10:53;16.90;99.90
17178;DHT22;8704;52.006;4.374;2023-08-08T00:13:21;16.90;87.70
17178;DHT22;8704;52.006;4.374;2023-08-08T00:15:49;16.90;54.10
17178;DHT22;8704;52.006;4.374;2023-08-08T00:18:17;16.90;29.70
17178;DHT22;8704;52.006;4.374;2023-08-08T00:20:47;16.90;2.30
17178;DHT22;8704;52.006;4.374;2023-08-08T00:23:15;16.90;1.00
17178;DHT22;8704;52.006;4.374;2023-08-08T00:25:43;17.00;1.00
17178;DHT22;8704;52.006;4.374;2023-08-08T00:28:17;17.00;1.00
17178;DHT22;8704;52.006;4.374;2023-08-08T00:30:45;17.00;1.00
17178;DHT22;8704;52.006;4.374;2023-08-08T00:33:13;17.00;1.00
17178;DHT22;8704;52.006;4.374;2023-08-08T00:35:42;17.00;1.00
17178;DHT22;8704;52.006;4.374;2023-08-08T00:38:12;17.00;1.00
17178;DHT22;8704;52.006;4.374;2023-08-08T00:40:41;17.00;1.00
17178;DHT22;8704;52.006;4.374;2023-08-08T00:43:09;17.00;1.00
17178;DHT22;8704;52.006;4.374;2023-08-08T00:45:37;17.00;1.00
17178;DHT22;8704;52.006;4.374;2023-08-08T00:48:06;16.90;1.00
17178;DHT22;8704;52.006;4.374;2023-08-08T00:50:35;16.90;1.00
17178;DHT22;8704;52.006;4.374;2023-08-08T00:53:04;16.90;1.00
17178;DHT22;8704;52.006;4.374;2023-08-08T00:55:33;16.90;1.00
17178;DHT22;8704;52.006;4.374;2023-08-08T00:58:02;16.90;1.00
17178;DHT22;8704;52.006;4.374;2023-08-08T01:00:31;16.80;1.00
17178;DHT22;8704;52.006;4.374;2023-08-08T01:02:59;16.70;8.60
17178;DHT22;8704;52.006;4.374;2023-08-08T01:05:35;16.80;1.00
17178;DHT22;8704;52.006;4.374;2023-08-08T01:08:07;16.80;1.00
17178;DHT22;8704;52.006;4.374;2023-08-08T01:10:38;16.80;1.00
17178;DHT22;8704;52.006;4.374;2023-08-08T01:13:09;16.80;1.00
17178;DHT22;8704;52.006;4.374;2023-08-08T01:15:39;16.80;1.00
17178;DHT22;8704;52.006;4.374;2023-08-08T01:18:09;16.80;1.00
17178;DHT22;8704;52.006;4.374;2023-08-08T01:20:38;16.80;1.00
17178;DHT22;8704;52.006;4.374;2023-08-08T01:23:11;16.80;1.00
17178;DHT22;8704;52.006;4.374;2023-08-08T01:25:42;16.80;1.00
17178;DHT22;8704;52.006;4.374;2023-08-08T01:28:11;16.80;1.00
17178;DHT22;8704;52.006;4.374;2023-08-08T01:30:39;16.80;1.00
17178;DHT22;8704;52.006;4.374;2023-08-08T01:33:09;16.80;1.00
17178;DHT22;8704;52.006;4.374;2023-08-08T01:35:38;16.80;1.00
17178;DHT22;8704;52.006;4.374;2023-08-08T01:38:11;16.80;1.00
17178;DHT22;8704;52.006;4.374;2023-08-08T01:40:43;16.80;1.00
17178;DHT22;8704;52.006;4.374;2023-08-08T01:43:12;16.80;1.00
17178;DHT22;8704;52.006;4.374;2023-08-08T01:45:43;16.80;1.00
17178;DHT22;8704;52.006;4.374;2023-08-08T01:48:11;16.70;1.00
17178;DHT22;8704;52.006;4.374;2023-08-08T01:50:39;16.80;1.00
17178;DHT22;8704;52.006;4.374;2023-08-08T01:53:07;16.70;1.00
17178;DHT22;8704;52.006;4.374;2023-08-08T01:55:37;16.70;1.00
17178;DHT22;8704;52.006;4.374;2023-08-08T01:58:06;16.70;1.00
17178;DHT22;8704;52.006;4.374;2023-08-08T02:00:34;16.70;1.00
17178;DHT22;8704;52.006;4.374;2023-08-08T02:03:03;16.70;1.00
17178;DHT22;8704;52.006;4.374;2023-08-08T02:05:32;16.70;1.00
17178;DHT22;8704;52.006;4.374;2023-08-08T02:08:00;16.60;1.00
17178;DHT22;8704;52.006;4.374;2023-08-08T02:10:28;16.60;1.00
17178;DHT22;8704;52.006;4.374;2023-08-08T02:12:56;16.70;1.00
17178;DHT22;8704;52.006;4.374;2023-08-08T02:15:26;16.70;1.00
17178;DHT22;8704;52.006;4.374;2023-08-08T02:17:54;16.60;1.00
17178;DHT22;8704;52.006;4.374;2023-08-08T02:20:22;16.60;1.00
17178;DHT22;8704;52.006;4.374;2023-08-08T02:22:50;16.60;1.00
17178;DHT22;8704;52.006;4.374;2023-08-08T02:25:18;16.70;1.00
17178;DHT22;8704;52.006;4.374;2023-08-08T02:27:47;16.60;1.00
17178;DHT22;8704;52.006;4.374;2023-08-08T02:30:15;16.60;1.00
17178;DHT22;8704;52.006;4.374;2023-08-08T02:32:44;16.60;1.00
17178;DHT22;8704;52.006;4.374;2023-08-08T02:35:13;16.60;1.00
17178;DHT22;8704;52.006;4.374;2023-08-08T02:37:41;16.60;1.00
17178;DHT22;8704;52.006;4.374;2023-08-08T02:40:10;16.60;1.00
17178;DHT22;8704;52.006;4.374;2023-08-08T02:42:38;16.50;1.00
17178;DHT22;8704;52.006;4.374;2023-08-08T02:45:07;16.50;1.00
17178;DHT22;8704;52.006;4.374;2023-08-08T02:47:35;16.50;1.00
17178;DHT22;8704;52.006;4.374;2023-08-08T02:50:05;16.40;1.00
17178;DHT22;8704;52.006;4.374;2023-08-08T02:52:34;16.40;1.00
17178;DHT22;8704;52.006;4.374;2023-08-08T02:55:02;16.30;1.00
17178;DHT22;8704;52.006;4.374;2023-08-08T02:57:30;16.30;1.00
17178;DHT22;8704;52.006;4.374;2023-08-08T02:59:58;16.30;1.00
17178;DHT22;8704;52.006;4.374;2023-08-08T03:02:26;16.30;1.00
17178;DHT22;8704;52.006;4.374;2023-08-08T03:04:54;16.30;1.00
17178;DHT22;8704;52.006;4.374;2023-08-08T03:07:24;16.30;1.00
17178;DHT22;8704;52.006;4.374;2023-08-08T03:09:52;16.30;1.00
17178;DHT22;8704;52.006;4.374;2023-08-08T03:12:20;16.30;1.00
17178;DHT22;8704;52.006;4.374;2023-08-08T03:14:48;16.30;1.00
17178;DHT22;8704;52.006;4.374;2023-08-08T03:17:17;16.30;1.00
17178;DHT22;8704;52.006;4.374;2023-08-08T03:19:45;16.30;1.00
17178;DHT22;8704;52.006;4.374;2023-08-08T03:22:13;16.30;1.00
17178;DHT22;8704;52.006;4.374;2023-08-08T03:24:42;16.30;1.00
17178;DHT22;8704;52.006;4.374;2023-08-08T03:27:10;16.30;1.00
17178;DHT22;8704;52.006;4.374;2023-08-08T03:29:39;16.30;1.00
17178;DHT22;8704;52.006;4.374;2023-08-08T03:32:07;16.30;1.00
17178;DHT22;8704;52.006;4.374;2023-08-08T03:34:35;16.30;1.00
17178;DHT22;8704;52.006;4.374;2023-08-08T03:37:03;16.30;1.00
17178;DHT22;8704;52.006;4.374;2023-08-08T03:39:32;16.20;1.00
17178;DHT22;8704;52.006;4.374;2023-08-08T03:42:01;16.20;1.00
17178;DHT22;8704;52.006;4.374;2023-08-08T03:44:29;16.20;1.00
17178;DHT22;8704;52.006;4.374;2023-08-08T03:46:58;16.20;1.00
17178;DHT22;8704;52.006;4.374;2023-08-08T03:49:44;16.20;1.00
17178;DHT22;8704;52.006;4.374;2023-08-08T03:52:12;16.20;1.00
17178;DHT22;8704;52.006;4.374;2023-08-08T03:54:42;16.20;1.00
17178;DHT22;8704;52.006;4.374;2023-08-08T03:57:11;16.20;1.00
17178;DHT22;8704;52.006;4.374;2023-08-08T03:59:39;16.10;1.00
17178;DHT22;8704;52.006;4.374;2023-08-08T04:02:08;16.10;1.00
17178;DHT22;8704;52.006;4.374;2023-08-08T04:04:36;16.10;1.00
17178;DHT22;8704;52.006;4.374;2023-08-08T04:07:05;16.00;1.00
17178;DHT22;8704;52.006;4.374;2023-08-08T04:09:33;16.00;1.00
17178;DHT22;8704;52.006;4.374;2023-08-08T04:12:02;16.00;1.00
17178;DHT22;8704;52.006;4.374;2023-08-08T04:14:31;16.00;1.00
17178;DHT22;8704;52.006;4.374;2023-08-08T04:16:59;16.00;1.00
17178;DHT22;8704;52.006;4.374;2023-08-08T04:19:27;15.90;1.00
17178;DHT22;8704;52.006;4.374;2023-08-08T04:21:55;15.90;1.00
17178;DHT22;8704;52.006;4.374;2023-08-08T04:24:25;15.90;1.00
17178;DHT22;8704;52.006;4.374;2023-08-08T04:26:53;15.80;1.00
17178;DHT22;8704;52.006;4.374;2023-08-08T04:29:21;15.80;1.00
17178;DHT22;8704;52.006;4.374;2023-08-08T04:31:50;15.80;1.00
17178;DHT22;8704;52.006;4.374;2023-08-08T04:34:19;15.70;1.00
17178;DHT22;8704;52.006;4.374;2023-08-08T04:36:47;15.70;1.00
17178;DHT22;8704;52.006;4.374;2023-08-08T04:39:15;15.70;1.00
17178;DHT22;8704;52.006;4.374;2023-08-08T04:41:43;15.80;1.00
17178;DHT22;8704;52.006;4.374;2023-08-08T04:44:11;15.80;1.00
17178;DHT22;8704;52.006;4.374;2023-08-08T04:46:39;15.70;1.00
17178;DHT22;8704;52.006;4.374;2023-08-08T04:49:09;15.80;1.00
17178;DHT22;8704;52.006;4.374;2023-08-08T04:51:37;15.80;1.00
17178;DHT22;8704;52.006;4.374;2023-08-08T04:54:05;15.80;1.00
17178;DHT22;8704;52.006;4.374;2023-08-08T04:56:33;15.80;1.00
17178;DHT22;8704;52.006;4.374;2023-08-08T04:59:01;15.80;1.00
17178;DHT22;8704;52.006;4.374;2023-08-08T05:01:29;15.80;1.00
17178;DHT22;8704;52.006;4.374;2023-08-08T05:03:57;15.80;1.00
17178;DHT22;8704;52.006;4.374;2023-08-08T05:06:27;15.80;1.00
17178;DHT22;8704;52.006;4.374;2023-08-08T05:08:55;15.80;1.00
17178;DHT22;8704;52.006;4.374;2023-08-08T05:11:23;15.80;1.00
17178;DHT22;8704;52.006;4.374;2023-08-08T05:13:52;15.80;1.00
17178;DHT22;8704;52.006;4.374;2023-08-08T05:16:20;15.80;1.00
17178;DHT22;8704;52.006;4.374;2023-08-08T05:18:49;15.90;1.00
17178;DHT22;8704;52.006;4.374;2023-08-08T05:21:17;15.90;1.00
17178;DHT22;8704;52.006;4.374;2023-08-08T05:23:47;15.90;1.00
17178;DHT22;8704;52.006;4.374;2023-08-08T05:26:15;15.90;1.00
17178;DHT22;8704;52.006;4.374;2023-08-08T05:28:43;15.90;1.00
17178;DHT22;8704;52.006;4.374;2023-08-08T05:31:11;15.90;1.00
17178;DHT22;8704;52.006;4.374;2023-08-08T05:33:39;15.80;1.00
17178;DHT22;8704;52.006;4.374;2023-08-08T05:36:08;15.80;1.00
17178;DHT22;8704;52.006;4.374;2023-08-08T05:38:36;15.90;1.00
17178;DHT22;8704;52.006;4.374;2023-08-08T05:41:06;15.90;1.00
17178;DHT22;8704;52.006;4.374;2023-08-08T05:43:34;15.90;1.00
17178;DHT22;8704;52.006;4.374;2023-08-08T05:46:02;15.90;1.00
17178;DHT22;8704;52.006;4.374;2023-08-08T05:48:30;15.90;1.00
17178;DHT22;8704;52.006;4.374;2023-08-08T05:50:58;15.90;1.00
17178;DHT22;8704;52.006;4.374;2023-08-08T05:53:26;15.90;1.00
17178;DHT22;8704;52.006;4.374;2023-08-08T05:55:55;15.90;1.00
17178;DHT22;8704;52.006;4.374;2023-08-08T05:58:25;15.90;1.00
17178;DHT22;8704;52.006;4.374;2023-08-08T06:00:53;15.90;1.00
17178;DHT22;8704;52.006;4.374;2023-08-08T06:03:21;16.00;1.00
17178;DHT22;8704;52.006;4.374;2023-08-08T06:05:49;16.00;1.00
17178;DHT22;8704;52.006;4.374;2023-08-08T06:08:17;16.00;1.00
17178;DHT22;8704;52.006;4.374;2023-08-08T06:10:45;16.10;1.00
17178;DHT22;8704;52.006;4.374;2023-08-08T06:13:13;16.10;1.00
17178;DHT22;8704;52.006;4.374;2023-08-08T06:15:43;16.10;1.00
17178;DHT22;8704;52.006;4.374;2023-08-08T06:18:11;16.10;1.00
17178;DHT22;8704;52.006;4.374;2023-08-08T06:20:39;16.10;1.00
17178;DHT22;8704;52.006;4.374;2023-08-08T06:23:07;16.10;1.00
17178;DHT22;8704;52.006;4.374;2023-08-08T06:25:36;16.20;1.00
17178;DHT22;8704;52.006;4.374;2023-08-08T06:28:06;16.20;1.00
17178;DHT22;8704;52.006;4.374;2023-08-08T06:30:34;17.10;1.00
17178;DHT22;8704;52.006;4.374;2023-08-08T06:33:04;16.30;1.00
17178;DHT22;8704;52.006;4.374;2023-08-08T06:35:32;16.40;1.00
17178;DHT22;8704;52.006;4.374;2023-08-08T06:38:00;16.40;1.00
17178;DHT22;8704;52.006;4.374;2023-08-08T06:40:29;16.50;1.00
17178;DHT22;8704;52.006;4.374;2023-08-08T06:42:57;16.50;1.00
17178;DHT22;8704;52.006;4.374;2023-08-08T06:45:26;16.60;1.00
17178;DHT22;8704;52.006;4.374;2023-08-08T06:47:54;16.60;1.00
17178;DHT22;8704;52.006;4.374;2023-08-08T06:50:23;16.70;1.00
17178;DHT22;8704;52.006;4.374;2023-08-08T06:52:52;16.70;1.00
17178;DHT22;8704;52.006;4.374;2023-08-08T06:55:20;16.80;1.00
17178;DHT22;8704;52.006;4.374;2023-08-08T06:57:48;16.80;1.00
17178;DHT22;8704;52.006;4.374;2023-08-08T07:00:16;16.80;1.00
17178;DHT22;8704;52.006;4.374;2023-08-08T07:02:44;16.80;1.00
17178;DHT22;8704;52.006;4.374;2023-08-08T07:05:13;16.90;1.00
17178;DHT22;8704;52.006;4.374;2023-08-08T07:07:42;16.80;1.00
17178;DHT22;8704;52.006;4.374;2023-08-08T07:10:11;16.90;1.00
17178;DHT22;8704;52.006;4.374;2023-08-08T07:12:40;16.80;1.00
17178;DHT22;8704;52.006;4.374;2023-08-08T07:15:09;16.90;1.00
17178;DHT22;8704;52.006;4.374;2023-08-08T07:17:37;16.90;1.00
17178;DHT22;8704;52.006;4.374;2023-08-08T07:20:06;17.00;1.00
17178;DHT22;8704;52.006;4.374;2023-08-08T07:22:36;17.00;1.00
17178;DHT22;8704;52.006;4.374;2023-08-08T07:25:07;17.00;1.00
17178;DHT22;8704;52.006;4.374;2023-08-08T07:27:35;17.00;1.00
17178;DHT22;8704;52.006;4.374;2023-08-08T07:30:04;17.00;1.00
17178;DHT22;8704;52.006;4.374;2023-08-08T07:32:34;17.10;1.00
17178;DHT22;8704;52.006;4.374;2023-08-08T07:35:02;17.10;1.00
17178;DHT22;8704;52.006;4.374;2023-08-08T07:37:32;17.20;1.00
17178;DHT22;8704;52.006;4.374;2023-08-08T07:40:01;17.30;1.00
17178;DHT22;8704;52.006;4.374;2023-08-08T07:42:32;17.20;1.00
17178;DHT22;8704;52.006;4.374;2023-08-08T07:45:00;17.20;1.00
17178;DHT22;8704;52.006;4.374;2023-08-08T07:47:28;17.20;1.00
17178;DHT22;8704;52.006;4.374;2023-08-08T07:49:56;17.30;1.00
17178;DHT22;8704;52.006;4.374;2023-08-08T07:52:24;17.30;1.00
17178;DHT22;8704;52.006;4.374;2023-08-08T07:54:52;17.30;1.00
17178;DHT22;8704;52.006;4.374;2023-08-08T07:57:20;17.30;1.00
17178;DHT22;8704;52.006;4.374;2023-08-08T07:59:50;17.30;1.00
17178;DHT22;8704;52.006;4.374;2023-08-08T08:02:18;17.30;1.00
17178;DHT22;8704;52.006;4.374;2023-08-08T08:04:46;17.30;1.00
17178;DHT22;8704;52.006;4.374;2023-08-08T08:07:15;17.40;1.00
17178;DHT22;8704;52.006;4.374;2023-08-08T08:09:43;17.50;1.00
17178;DHT22;8704;52.006;4.374;2023-08-08T08:12:12;17.50;1.00
17178;DHT22;8704;52.006;4.374;2023-08-08T08:14:40;17.50;1.00
17178;DHT22;8704;52.006;4.374;2023-08-08T08:17:10;17.60;1.00
17178;DHT22;8704;52.006;4.374;2023-08-08T08:19:38;17.60;1.00
17178;DHT22;8704;52.006;4.374;2023-08-08T08:22:06;17.60;1.00
17178;DHT22;8704;52.006;4.374;2023-08-08T08:24:34;17.60;1.00
17178;DHT22;8704;52.006;4.374;2023-08-08T08:27:03;17.60;1.00
17178;DHT22;8704;52.006;4.374;2023-08-08T08:29:31;17.70;1.00
17178;DHT22;8704;52.006;4.374;2023-08-08T08:32:00;17.70;1.00
17178;DHT22;8704;52.006;4.374;2023-08-08T08:34:30;17.70;1.00
17178;DHT22;8704;52.006;4.374;2023-08-08T08:36:58;17.80;1.00
17178;DHT22;8704;52.006;4.374;2023-08-08T08:39:26;17.80;1.00
17178;DHT22;8704;52.006;4.374;2023-08-08T08:41:58;17.80;1.00
17178;DHT22;8704;52.006;4.374;2023-08-08T08:44:29;17.80;1.00
17178;DHT22;8704;52.006;4.374;2023-08-08T08:47:00;17.90;1.00
17178;DHT22;8704;52.006;4.374;2023-08-08T08:49:31;17.90;1.00
17178;DHT22;8704;52.006;4.374;2023-08-08T08:51:59;17.80;1.00
17178;DHT22;8704;52.006;4.374;2023-08-08T08:54:29;17.80;1.00
17178;DHT22;8704;52.006;4.374;2023-08-08T08:56:57;17.90;1.00
17178;DHT22;8704;52.006;4.374;2023-08-08T08:59:26;17.90;1.00
17178;DHT22;8704;52.006;4.374;2023-08-08T09:01:55;17.90;1.00
17178;DHT22;8704;52.006;4.374;2023-08-08T09:04:24;17.40;1.00
17178;DHT22;8704;52.006;4.374;2023-08-08T09:06:54;18.10;1.00
17178;DHT22;8704;52.006;4.374;2023-08-08T09:09:22;18.10;1.00
17178;DHT22;8704;52.006;4.374;2023-08-08T09:11:52;18.10;1.00
17178;DHT22;8704;52.006;4.374;2023-08-08T09:14:23;18.10;1.00
17178;DHT22;8704;52.006;4.374;2023-08-08T09:16:52;18.20;1.00
17178;DHT22;8704;52.006;4.374;2023-08-08T09:19:21;18.30;1.00
17178;DHT22;8704;52.006;4.374;2023-08-08T09:21:51;18.30;1.00
17178;DHT22;8704;52.006;4.374;2023-08-08T09:24:20;18.40;1.00
17178;DHT22;8704;52.006;4.374;2023-08-08T09:26:49;18.50;1.00
17178;DHT22;8704;52.006;4.374;2023-08-08T09:29:17;18.60;1.00
17178;DHT22;8704;52.006;4.374;2023-08-08T09:31:46;18.60;1.00
17178;DHT22;8704;52.006;4.374;2023-08-08T09:34:14;18.70;1.00
17178;DHT22;8704;52.006;4.374;2023-08-08T09:36:44;18.80;1.00
17178;DHT22;8704;52.006;4.374;2023-08-08T09:39:12;18.80;1.00
17178;DHT22;8704;52.006;4.374;2023-08-08T09:41:42;18.80;1.00
17178;DHT22;8704;52.006;4.374;2023-08-08T09:44:13;18.80;1.00
17178;DHT22;8704;52.006;4.374;2023-08-08T09:46:42;18.70;1.00
17178;DHT22;8704;52.006;4.374;2023-08-08T09:49:10;18.70;1.00
17178;DHT22;8704;52.006;4.374;2023-08-08T09:51:39;18.70;1.00
17178;DHT22;8704;52.006;4.374;2023-08-08T09:54:07;18.70;1.00
17178;DHT22;8704;52.006;4.374;2023-08-08T09:56:36;18.80;1.00
17178;DHT22;8704;52.006;4.374;2023-08-08T09:59:07;18.80;1.00
17178;DHT22;8704;52.006;4.374;2023-08-08T10:01:39;18.80;1.00
17178;DHT22;8704;52.006;4.374;2023-08-08T10:04:08;18.90;1.00
17178;DHT22;8704;52.006;4.374;2023-08-08T10:06:37;18.90;1.00
17178;DHT22;8704;52.006;4.374;2023-08-08T10:09:06;19.00;1.00
17178;DHT22;8704;52.006;4.374;2023-08-08T10:11:35;19.10;1.00
17178;DHT22;8704;52.006;4.374;2023-08-08T10:14:04;19.20;1.00
17178;DHT22;8704;52.006;4.374;2023-08-08T10:16:34;19.20;1.00
17178;DHT22;8704;52.006;4.374;2023-08-08T10:19:04;19.20;1.00
17178;DHT22;8704;52.006;4.374;2023-08-08T10:21:34;19.20;1.00
17178;DHT22;8704;52.006;4.374;2023-08-08T10:24:03;19.20;1.00
17178;DHT22;8704;52.006;4.374;2023-08-08T10:26:32;19.00;1.00
17178;DHT22;8704;52.006;4.374;2023-08-08T10:29:01;19.00;1.00
17178;DHT22;8704;52.006;4.374;2023-08-08T10:31:34;19.00;1.00
17178;DHT22;8704;52.006;4.374;2023-08-08T10:34:05;19.00;1.00
17178;DHT22;8704;52.006;4.374;2023-08-08T10:36:44;19.00;1.00
17178;DHT22;8704;52.006;4.374;2023-08-08T10:39:15;19.10;1.00
17178;DHT22;8704;52.006;4.374;2023-08-08T10:41:45;19.30;1.00
17178;DHT22;8704;52.006;4.374;2023-08-08T10:44:20;19.30;1.00
17178;DHT22;8704;52.006;4.374;2023-08-08T10:46:51;19.10;1.00
17178;DHT22;8704;52.006;4.374;2023-08-08T10:49:20;19.10;1.00
17178;DHT22;8704;52.006;4.374;2023-08-08T10:51:49;19.10;1.00
17178;DHT22;8704;52.006;4.374;2023-08-08T10:54:20;19.00;1.00
17178;DHT22;8704;52.006;4.374;2023-08-08T10:56:50;19.10;1.00
17178;DHT22;8704;52.006;4.374;2023-08-08T10:59:20;19.00;1.00
17178;DHT22;8704;52.006;4.374;2023-08-08T11:01:52;19.00;1.00
17178;DHT22;8704;52.006;4.374;2023-08-08T11:04:21;19.10;1.00
17178;DHT22;8704;52.006;4.374;2023-08-08T11:06:50;19.40;1.00
17178;DHT22;8704;52.006;4.374;2023-08-08T11:09:21;19.50;1.00
17178;DHT22;8704;52.006;4.374;2023-08-08T11:11:49;19.60;1.00
17178;DHT22;8704;52.006;4.374;2023-08-08T11:14:20;19.60;1.00
17178;DHT22;8704;52.006;4.374;2023-08-08T11:16:49;19.70;1.00
17178;DHT22;8704;52.006;4.374;2023-08-08T11:19:20;19.80;1.00
17178;DHT22;8704;52.006;4.374;2023-08-08T11:21:50;19.80;1.00
17178;DHT22;8704;52.006;4.374;2023-08-08T11:24:18;20.00;1.00
17178;DHT22;8704;52.006;4.374;2023-08-08T11:26:46;20.30;1.00
17178;DHT22;8704;52.006;4.374;2023-08-08T11:29:15;20.40;1.00
17178;DHT22;8704;52.006;4.374;2023-08-08T11:31:43;20.50;1.00
17178;DHT22;8704;52.006;4.374;2023-08-08T11:34:11;20.60;1.00
17178;DHT22;8704;52.006;4.374;2023-08-08T11:36:45;20.60;1.00
17178;DHT22;8704;52.006;4.374;2023-08-08T11:39:13;20.50;1.00
17178;DHT22;8704;52.006;4.374;2023-08-08T11:41:43;20.30;1.00
17178;DHT22;8704;52.006;4.374;2023-08-08T11:44:12;20.20;1.00
17178;DHT22;8704;52.006;4.374;2023-08-08T11:46:44;20.30;1.00
17178;DHT22;8704;52.006;4.374;2023-08-08T11:49:14;20.20;1.00
17178;DHT22;8704;52.006;4.374;2023-08-08T11:51:44;20.40;1.00
17178;DHT22;8704;52.006;4.374;2023-08-08T11:54:13;20.50;1.00
17178;DHT22;8704;52.006;4.374;2023-08-08T11:56:41;20.70;1.00
17178;DHT22;8704;52.006;4.374;2023-08-08T11:59:10;20.40;1.00
17178;DHT22;8704;52.006;4.374;2023-08-08T12:01:41;20.50;1.00
17178;DHT22;8704;52.006;4.374;2023-08-08T12:04:09;20.90;1.00
17178;DHT22;8704;52.006;4.374;2023-08-08T12:06:38;21.10;1.00
17178;DHT22;8704;52.006;4.374;2023-08-08T12:09:11;21.20;1.00
17178;DHT22;8704;52.006;4.374;2023-08-08T12:11:41;21.00;1.00
17178;DHT22;8704;52.006;4.374;2023-08-08T12:14:11;21.00;1.00
17178;DHT22;8704;52.006;4.374;2023-08-08T12:16:40;21.00;1.00
17178;DHT22;8704;52.006;4.374;2023-08-08T12:19:10;21.30;1.00
17178;DHT22;8704;52.006;4.374;2023-08-08T12:21:41;21.70;1.00
17178;DHT22;8704;52.006;4.374;2023-08-08T12:24:10;21.90;1.00
17178;DHT22;8704;52.006;4.374;2023-08-08T12:26:38;22.00;1.00
17178;DHT22;8704;52.006;4.374;2023-08-08T12:29:06;22.10;1.00
17178;DHT22;8704;52.006;4.374;2023-08-08T12:31:35;21.60;1.00
17178;DHT22;8704;52.006;4.374;2023-08-08T12:34:03;21.90;1.00
17178;DHT22;8704;52.006;4.374;2023-08-08T12:36:31;21.90;1.00
17178;DHT22;8704;52.006;4.374;2023-08-08T12:38:59;21.80;1.00
17178;DHT22;8704;52.006;4.374;2023-08-08T12:41:29;21.80;1.00
17178;DHT22;8704;52.006;4.374;2023-08-08T12:43:57;22.10;1.00
17178;DHT22;8704;52.006;4.374;2023-08-08T12:46:25;22.20;1.00
17178;DHT22;8704;52.006;4.374;2023-08-08T12:48:54;22.50;1.00
17178;DHT22;8704;52.006;4.374;2023-08-08T12:51:22;22.90;1.00
17178;DHT22;8704;52.006;4.374;2023-08-08T12:53:50;23.10;1.00
17178;DHT22;8704;52.006;4.374;2023-08-08T12:56:18;23.10;1.00
17178;DHT22;8704;52.006;4.374;2023-08-08T12:58:48;22.80;1.00
17178;DHT22;8704;52.006;4.374;2023-08-08T13:01:16;22.40;1.00
17178;DHT22;8704;52.006;4.374;2023-08-08T13:03:45;22.60;1.00
17178;DHT22;8704;52.006;4.374;2023-08-08T13:06:21;22.80;1.00
17178;DHT22;8704;52.006;4.374;2023-08-08T13:08:50;23.00;1.00
17178;DHT22;8704;52.006;4.374;2023-08-08T13:11:18;22.90;1.00
17178;DHT22;8704;52.006;4.374;2023-08-08T13:13:47;23.10;1.00
17178;DHT22;8704;52.006;4.374;2023-08-08T13:16:15;23.20;1.00
17178;DHT22;8704;52.006;4.374;2023-08-08T13:18:42;23.40;1.00
17178;DHT22;8704;52.006;4.374;2023-08-08T13:21:11;23.30;1.00
17178;DHT22;8704;52.006;4.374;2023-08-08T13:23:40;23.00;1.00
17178;DHT22;8704;52.006;4.374;2023-08-08T13:26:08;23.20;1.00
17178;DHT22;8704;52.006;4.374;2023-08-08T13:28:37;23.20;1.00
17178;DHT22;8704;52.006;4.374;2023-08-08T13:31:07;23.20;1.00
17178;DHT22;8704;52.006;4.374;2023-08-08T13:33:35;23.40;1.00
17178;DHT22;8704;52.006;4.374;2023-08-08T13:36:03;23.50;1.00
17178;DHT22;8704;52.006;4.374;2023-08-08T13:38:32;23.70;1.00
17178;DHT22;8704;52.006;4.374;2023-08-08T13:41:00;23.90;1.00
17178;DHT22;8704;52.006;4.374;2023-08-08T13:43:28;24.00;1.00
17178;DHT22;8704;52.006;4.374;2023-08-08T13:45:57;23.80;1.00
17178;DHT22;8704;52.006;4.374;2023-08-08T13:48:28;23.90;1.00
17178;DHT22;8704;52.006;4.374;2023-08-08T13:50:58;23.90;1.00
17178;DHT22;8704;52.006;4.374;2023-08-08T13:53:26;23.40;1.00
17178;DHT22;8704;52.006;4.374;2023-08-08T13:55:54;23.50;1.00
17178;DHT22;8704;52.006;4.374;2023-08-08T13:58:23;23.30;1.00
17178;DHT22;8704;52.006;4.374;2023-08-08T14:00:51;23.20;1.00
17178;DHT22;8704;52.006;4.374;2023-08-08T14:03:19;23.30;1.00
17178;DHT22;8704;52.006;4.374;2023-08-08T14:05:49;23.30;1.00
17178;DHT22;8704;52.006;4.374;2023-08-08T14:08:19;23.70;1.00
17178;DHT22;8704;52.006;4.374;2023-08-08T14:10:47;23.80;1.00
17178;DHT22;8704;52.006;4.374;2023-08-08T14:13:16;23.70;1.00
17178;DHT22;8704;52.006;4.374;2023-08-08T14:15:45;23.80;1.00
17178;DHT22;8704;52.006;4.374;2023-08-08T14:18:14;24.00;1.00
17178;DHT22;8704;52.006;4.374;2023-08-08T14:20:42;24.20;1.00
17178;DHT22;8704;52.006;4.374;2023-08-08T14:23:11;24.30;1.00
17178;DHT22;8704;52.006;4.374;2023-08-08T14:25:41;23.70;1.00
17178;DHT22;8704;52.006;4.374;2023-08-08T14:28:09;23.60;1.00
17178;DHT22;8704;52.006;4.374;2023-08-08T14:30:37;23.50;1.00
17178;DHT22;8704;52.006;4.374;2023-08-08T14:33:05;23.70;1.00
17178;DHT22;8704;52.006;4.374;2023-08-08T14:35:33;23.80;1.00
17178;DHT22;8704;52.006;4.374;2023-08-08T14:38:01;23.50;1.00
17178;DHT22;8704;52.006;4.374;2023-08-08T14:40:31;23.40;1.00
17178;DHT22;8704;52.006;4.374;2023-08-08T14:43:03;23.70;1.00
17178;DHT22;8704;52.006;4.374;2023-08-08T14:45:36;23.70;1.00
17178;DHT22;8704;52.006;4.374;2023-08-08T14:48:06;23.60;1.00
17178;DHT22;8704;52.006;4.374;2023-08-08T14:50:34;23.50;1.00
17178;DHT22;8704;52.006;4.374;2023-08-08T14:53:03;23.00;1.00
17178;DHT22;8704;52.006;4.374;2023-08-08T14:55:34;22.80;1.00
17178;DHT22;8704;52.006;4.374;2023-08-08T14:58:02;22.80;1.00
17178;DHT22;8704;52.006;4.374;2023-08-08T15:00:30;22.60;1.00
17178;DHT22;8704;52.006;4.374;2023-08-08T15:02:58;22.40;1.00
17178;DHT22;8704;52.006;4.374;2023-08-08T15:05:27;22.30;1.00
17178;DHT22;8704;52.006;4.374;2023-08-08T15:07:55;22.10;1.00
17178;DHT22;8704;52.006;4.374;2023-08-08T15:10:23;22.00;1.00
17178;DHT22;8704;52.006;4.374;2023-08-08T15:12:53;21.60;1.00
17178;DHT22;8704;52.006;4.374;2023-08-08T15:15:21;21.50;1.00
17178;DHT22;8704;52.006;4.374;2023-08-08T15:17:51;21.60;1.00
17178;DHT22;8704;52.006;4.374;2023-08-08T15:20:19;21.50;1.00
17178;DHT22;8704;52.006;4.374;2023-08-08T15:22:47;21.60;1.00
17178;DHT22;8704;52.006;4.374;2023-08-08T15:25:15;21.40;1.00
17178;DHT22;8704;52.006;4.374;2023-08-08T15:27:43;21.40;1.00
17178;DHT22;8704;52.006;4.374;2023-08-08T15:30:13;21.20;1.00
17178;DHT22;8704;52.006;4.374;2023-08-08T15:32:41;21.00;1.00
17178;DHT22;8704;52.006;4.374;2023-08-08T15:35:09;21.00;1.00
17178;DHT22;8704;52.006;4.374;2023-08-08T15:37:37;20.90;1.00
17178;DHT22;8704;52.006;4.374;2023-08-08T15:40:07;20.90;1.00
17178;DHT22;8704;52.006;4.374;2023-08-08T15:42:35;20.80;1.00
17178;DHT22;8704;52.006;4.374;2023-08-08T15:45:04;20.80;1.00
17178;DHT22;8704;52.006;4.374;2023-08-08T15:47:34;20.60;1.00
17178;DHT22;8704;52.006;4.374;2023-08-08T15:50:02;20.60;1.00
17178;DHT22;8704;52.006;4.374;2023-08-08T15:52:30;20.50;1.00
17178;DHT22;8704;52.006;4.374;2023-08-08T15:54:58;20.50;1.00
17178;DHT22;8704;52.006;4.374;2023-08-08T15:57:26;20.30;1.00
17178;DHT22;8704;52.006;4.374;2023-08-08T15:59:55;20.30;1.00
17178;DHT22;8704;52.006;4.374;2023-08-08T16:02:23;20.20;1.00
17178;DHT22;8704;52.006;4.374;2023-08-08T16:04:53;20.30;1.00
17178;DHT22;8704;52.006;4.374;2023-08-08T16:07:21;20.20;1.00
17178;DHT22;8704;52.006;4.374;2023-08-08T16:09:50;20.10;1.00
17178;DHT22;8704;52.006;4.374;2023-08-08T16:12:18;20.10;1.00